sensor_id;sensor_type;location;lat;lon;timestamp;pressure;altitude;pressure_sealevel;temperature;humidity
62976;BME280;49071;0.000;0.000;2023-04-20T04:58:44;101412.56;;;16.33;45.11
62976;BME280;49071;0.000;0.000;2023-04-20T05:01:45;101416.94;;;16.34;45.00
62976;BME280;49071;0.000;0.000;2023-04-20T05:04:45;101407.25;;;16.36;45.39
62976;BME280;49071;0.000;0.000;2023-04-20T05:07:45;101404.72;;;16.33;45.20
62976;BME280;49071;0.000;0.000;2023-04-20T05:10:46;101405.78;;;16.26;45.34
62976;BME280;49071;0.000;0.000;2023-04-20T05:13:46;101410.16;;;16.27;45.57
62976;BME280;49071;0.000;0.000;2023-04-20T05:16:47;101418.88;;;16.27;45.38
62976;BME280;49071;0.000;0.000;2023-04-20T05:19:47;101412.78;;;16.27;45.16
62976;BME280;49071;0.000;0.000;2023-04-20T05:22:47;101427.56;;;16.28;45.28
62976;BME280;49071;0.000;0.000;2023-04-20T05:25:48;101423.88;;;16.35;44.98
62976;BME280;49071;0.000;0.000;2023-04-20T05:28:48;101430.56;;;16.45;44.98
62976;BME280;49071;0.000;0.000;2023-04-20T05:31:48;101430.16;;;16.59;44.95
62976;BME280;49071;0.000;0.000;2023-04-20T05:34:48;101434.09;;;16.75;44.72
62976;BME280;49071;0.000;0.000;2023-04-20T05:37:48;101436.03;;;16.98;43.96
62976;BME280;49071;0.000;0.000;2023-04-20T05:40:49;101439.59;;;17.24;43.73
62976;BME280;49071;0.000;0.000;2023-04-20T05:43:49;101446.69;;;17.49;43.65
62976;BME280;49071;0.000;0.000;2023-04-20T05:46:50;101447.69;;;17.71;43.31
62976;BME280;49071;0.000;0.000;2023-04-20T05:49:50;101446.00;;;17.95;43.06
62976;BME280;49071;0.000;0.000;2023-04-20T05:52:50;101443.50;;;18.17;42.63
62976;BME280;49071;0.000;0.000;2023-04-20T05:55:51;101438.50;;;18.34;42.21
62976;BME280;49071;0.000;0.000;2023-04-20T05:58:51;101447.84;;;18.43;42.31
62976;BME280;49071;0.000;0.000;2023-04-20T06:01:52;101445.88;;;18.48;42.49
62976;BME280;49071;0.000;0.000;2023-04-20T06:04:52;101432.75;;;18.48;42.17
62976;BME280;49071;0.000;0.000;2023-04-20T06:07:52;101430.13;;;18.48;42.26
62976;BME280;49071;0.000;0.000;2023-04-20T06:10:53;101450.06;;;18.54;42.01
62976;BME280;49071;0.000;0.000;2023-04-20T06:13:54;101450.47;;;18.67;41.78
62976;BME280;49071;0.000;0.000;2023-04-20T06:16:54;101449.97;;;18.80;41.68
62976;BME280;49071;0.000;0.000;2023-04-20T06:19:54;101451.16;;;18.95;41.40
62976;BME280;49071;0.000;0.000;2023-04-20T06:22:54;101460.22;;;19.10;41.49
62976;BME280;49071;0.000;0.000;2023-04-20T06:25:55;101462.13;;;19.28;40.93
62976;BME280;49071;0.000;0.000;2023-04-20T06:28:55;101463.97;;;19.48;40.54
62976;BME280;49071;0.000;0.000;2023-04-20T06:31:55;101462.44;;;19.65;40.29
62976;BME280;49071;0.000;0.000;2023-04-20T06:34:55;101461.03;;;19.78;40.16
62976;BME280;49071;0.000;0.000;2023-04-20T06:37:55;101462.66;;;19.80;40.13
62976;BME280;49071;0.000;0.000;2023-04-20T06:40:56;101469.78;;;19.78;40.13
62976;BME280;49071;0.000;0.000;2023-04-20T06:44:00;101469.94;;;19.74;40.15
62976;BME280;49071;0.000;0.000;2023-04-20T06:47:00;101470.16;;;19.69;40.08
62976;BME280;49071;0.000;0.000;2023-04-20T06:50:01;101465.13;;;19.63;40.17
62976;BME280;49071;0.000;0.000;2023-04-20T06:53:03;101456.78;;;19.52;40.43
62976;BME280;49071;0.000;0.000;2023-04-20T06:56:03;101450.94;;;19.45;40.53
62976;BME280;49071;0.000;0.000;2023-04-20T06:59:03;101460.03;;;19.37;40.78
62976;BME280;49071;0.000;0.000;2023-04-20T07:02:03;101468.19;;;19.30;40.57
62976;BME280;49071;0.000;0.000;2023-04-20T07:05:04;101468.47;;;19.23;40.96
62976;BME280;49071;0.000;0.000;2023-04-20T07:08:04;101472.28;;;19.16;41.15
62976;BME280;49071;0.000;0.000;2023-04-20T07:11:05;101463.59;;;19.14;40.97
62976;BME280;49071;0.000;0.000;2023-04-20T07:14:05;101471.53;;;19.12;40.97
62976;BME280;49071;0.000;0.000;2023-04-20T07:17:05;101472.47;;;19.11;41.08
62976;BME280;49071;0.000;0.000;2023-04-20T07:20:05;101485.41;;;19.16;41.18
62976;BME280;49071;0.000;0.000;2023-04-20T07:23:09;101479.81;;;19.25;40.66
62976;BME280;49071;0.000;0.000;2023-04-20T07:26:09;101485.59;;;19.33;40.75
62976;BME280;49071;0.000;0.000;2023-04-20T07:29:09;101480.84;;;19.43;40.73
62976;BME280;49071;0.000;0.000;2023-04-20T07:32:10;101488.28;;;19.53;40.52
62976;BME280;49071;0.000;0.000;2023-04-20T07:35:10;101485.38;;;19.61;40.43
62976;BME280;49071;0.000;0.000;2023-04-20T07:38:10;101494.63;;;19.71;40.39
62976;BME280;49071;0.000;0.000;2023-04-20T07:41:11;101489.91;;;19.79;40.34
62976;BME280;49071;0.000;0.000;2023-04-20T07:44:14;101490.16;;;19.94;39.98
62976;BME280;49071;0.000;0.000;2023-04-20T07:47:14;101488.22;;;19.99;39.86
62976;BME280;49071;0.000;0.000;2023-04-20T07:50:14;101490.00;;;19.98;40.23
62976;BME280;49071;0.000;0.000;2023-04-20T07:53:14;101492.75;;;19.95;39.83
62976;BME280;49071;0.000;0.000;2023-04-20T07:56:14;101495.56;;;19.91;40.09
62976;BME280;49071;0.000;0.000;2023-04-20T07:59:15;101493.25;;;19.83;40.20
62976;BME280;49071;0.000;0.000;2023-04-20T08:02:15;101495.28;;;19.76;40.14
62976;BME280;49071;0.000;0.000;2023-04-20T08:05:16;101493.84;;;19.69;40.41
62976;BME280;49071;0.000;0.000;2023-04-20T08:08:16;101488.78;;;19.65;40.22
62976;BME280;49071;0.000;0.000;2023-04-20T08:11:16;101491.66;;;19.57;40.45
62976;BME280;49071;0.000;0.000;2023-04-20T08:14:17;101491.00;;;19.52;40.50
62976;BME280;49071;0.000;0.000;2023-04-20T08:17:17;101485.97;;;19.46;40.75
62976;BME280;49071;0.000;0.000;2023-04-20T08:20:17;101497.56;;;19.42;40.91
62976;BME280;49071;0.000;0.000;2023-04-20T08:23:17;101492.53;;;19.35;40.86
62976;BME280;49071;0.000;0.000;2023-04-20T08:26:17;101484.94;;;19.28;41.17
62976;BME280;49071;0.000;0.000;2023-04-20T08:29:18;101496.56;;;19.22;41.10
62976;BME280;49071;0.000;0.000;2023-04-20T08:32:18;101490.56;;;19.19;40.97
62976;BME280;49071;0.000;0.000;2023-04-20T08:35:21;101495.19;;;19.12;41.17
62976;BME280;49071;0.000;0.000;2023-04-20T08:38:22;101495.44;;;19.06;41.09
62976;BME280;49071;0.000;0.000;2023-04-20T08:41:24;101497.41;;;19.01;41.26
62976;BME280;49071;0.000;0.000;2023-04-20T08:44:24;101491.44;;;18.96;41.32
62976;BME280;49071;0.000;0.000;2023-04-20T08:47:25;101492.56;;;18.90;41.35
62976;BME280;49071;0.000;0.000;2023-04-20T08:50:26;101493.63;;;18.84;41.37
62976;BME280;49071;0.000;0.000;2023-04-20T08:53:27;101485.03;;;18.79;41.52
62976;BME280;49071;0.000;0.000;2023-04-20T08:56:40;101491.28;;;18.77;41.95
62976;BME280;49071;0.000;0.000;2023-04-20T08:59:41;101491.44;;;18.72;41.98
62976;BME280;49071;0.000;0.000;2023-04-20T09:02:48;101484.56;;;18.68;41.78
62976;BME280;49071;0.000;0.000;2023-04-20T09:05:49;101489.94;;;18.65;42.23
62976;BME280;49071;0.000;0.000;2023-04-20T09:08:49;101473.50;;;18.60;41.99
62976;BME280;49071;0.000;0.000;2023-04-20T09:12:02;101470.97;;;18.57;41.90
62976;BME280;49071;0.000;0.000;2023-04-20T09:15:03;101467.50;;;18.56;42.20
62976;BME280;49071;0.000;0.000;2023-04-20T09:18:10;101465.59;;;18.60;42.06
62976;BME280;49071;0.000;0.000;2023-04-20T09:21:10;101475.09;;;18.64;41.95
62976;BME280;49071;0.000;0.000;2023-04-20T09:24:10;101474.00;;;18.70;42.01
62976;BME280;49071;0.000;0.000;2023-04-20T09:27:14;101472.94;;;18.75;42.06
62976;BME280;49071;0.000;0.000;2023-04-20T09:30:15;101471.78;;;18.82;42.06
62976;BME280;49071;0.000;0.000;2023-04-20T09:33:15;101485.56;;;18.89;42.07
62976;BME280;49071;0.000;0.000;2023-04-20T09:36:15;101482.59;;;18.98;41.60
62976;BME280;49071;0.000;0.000;2023-04-20T09:39:17;101476.75;;;19.14;41.66
62976;BME280;49071;0.000;0.000;2023-04-20T09:42:17;101469.34;;;19.23;41.47
62976;BME280;49071;0.000;0.000;2023-04-20T09:45:19;101476.22;;;19.27;41.51
62976;BME280;49071;0.000;0.000;2023-04-20T09:48:19;101481.59;;;19.24;41.23
62976;BME280;49071;0.000;0.000;2023-04-20T09:51:20;101479.06;;;19.21;41.25
62976;BME280;49071;0.000;0.000;2023-04-20T09:54:21;101476.56;;;19.18;41.68
62976;BME280;49071;0.000;0.000;2023-04-20T09:57:22;101482.78;;;19.16;41.55
62976;BME280;49071;0.000;0.000;2023-04-20T10:00:22;101477.66;;;19.13;41.70
62976;BME280;49071;0.000;0.000;2023-04-20T10:03:22;101473.25;;;19.13;41.59
62976;BME280;49071;0.000;0.000;2023-04-20T10:06:23;101465.34;;;19.13;41.39
62976;BME280;49071;0.000;0.000;2023-04-20T10:09:25;101471.50;;;19.14;41.31
62976;BME280;49071;0.000;0.000;2023-04-20T10:12:25;101462.91;;;19.08;41.74
62976;BME280;49071;0.000;0.000;2023-04-20T10:15:35;101462.22;;;19.03;41.78
62976;BME280;49071;0.000;0.000;2023-04-20T10:18:36;101455.03;;;19.08;41.45
62976;BME280;49071;0.000;0.000;2023-04-20T10:21:46;101445.56;;;19.04;41.32
62976;BME280;49071;0.000;0.000;2023-04-20T10:24:46;101441.25;;;19.02;41.53
62976;BME280;49071;0.000;0.000;2023-04-20T10:27:53;101431.47;;;19.05;41.57
62976;BME280;49071;0.000;0.000;2023-04-20T10:30:54;101433.19;;;19.06;41.65
62976;BME280;49071;0.000;0.000;2023-04-20T10:33:55;101426.19;;;19.07;41.65
62976;BME280;49071;0.000;0.000;2023-04-20T10:37:05;101422.53;;;19.09;41.37
62976;BME280;49071;0.000;0.000;2023-04-20T10:40:06;101418.28;;;19.07;41.46
62976;BME280;49071;0.000;0.000;2023-04-20T10:43:16;101425.28;;;19.06;41.72
62976;BME280;49071;0.000;0.000;2023-04-20T10:46:17;101415.81;;;19.02;41.68
62976;BME280;49071;0.000;0.000;2023-04-20T10:49:18;101415.09;;;18.99;41.56
62976;BME280;49071;0.000;0.000;2023-04-20T10:52:31;101414.34;;;18.95;41.77
62976;BME280;49071;0.000;0.000;2023-04-20T10:55:31;101423.28;;;18.91;41.89
62976;BME280;49071;0.000;0.000;2023-04-20T10:58:33;101420.78;;;18.88;41.99
62976;BME280;49071;0.000;0.000;2023-04-20T11:01:33;101417.34;;;18.86;41.76
62976;BME280;49071;0.000;0.000;2023-04-20T11:04:33;101420.16;;;18.81;41.95
62976;BME280;49071;0.000;0.000;2023-04-20T11:07:35;101417.44;;;18.83;42.07
62976;BME280;49071;0.000;0.000;2023-04-20T11:10:45;101408.91;;;18.78;42.02
62976;BME280;49071;0.000;0.000;2023-04-20T11:13:46;101411.66;;;18.75;41.97
62976;BME280;49071;0.000;0.000;2023-04-20T11:16:50;101411.75;;;18.72;42.22
62976;BME280;49071;0.000;0.000;2023-04-20T11:19:51;101406.59;;;18.69;42.43
62976;BME280;49071;0.000;0.000;2023-04-20T11:22:55;101397.97;;;18.65;42.37
62976;BME280;49071;0.000;0.000;2023-04-20T11:25:56;101406.91;;;18.59;42.60
62976;BME280;49071;0.000;0.000;2023-04-20T11:28:57;101407.09;;;18.55;42.41
62976;BME280;49071;0.000;0.000;2023-04-20T11:31:57;101407.22;;;18.52;42.51
62976;BME280;49071;0.000;0.000;2023-04-20T11:35:01;101404.72;;;18.49;42.55
62976;BME280;49071;0.000;0.000;2023-04-20T11:38:04;101398.59;;;18.48;42.63
62976;BME280;49071;0.000;0.000;2023-04-20T11:41:04;101399.63;;;18.44;42.68
62976;BME280;49071;0.000;0.000;2023-04-20T11:44:06;101390.94;;;18.42;42.63
62976;BME280;49071;0.000;0.000;2023-04-20T11:47:06;101387.56;;;18.38;42.63
62976;BME280;49071;0.000;0.000;2023-04-20T11:50:07;101380.63;;;18.37;42.91
62976;BME280;49071;0.000;0.000;2023-04-20T11:53:08;101375.47;;;18.34;43.11
62976;BME280;49071;0.000;0.000;2023-04-20T11:56:09;101381.59;;;18.35;42.87
62976;BME280;49071;0.000;0.000;2023-04-20T11:59:09;101381.47;;;18.38;42.97
62976;BME280;49071;0.000;0.000;2023-04-20T12:02:10;101376.97;;;18.41;42.65
62976;BME280;49071;0.000;0.000;2023-04-20T12:05:10;101375.88;;;18.47;42.61
62976;BME280;49071;0.000;0.000;2023-04-20T12:08:10;101373.03;;;18.53;42.70
62976;BME280;49071;0.000;0.000;2023-04-20T12:11:10;101363.19;;;18.58;42.85
62976;BME280;49071;0.000;0.000;2023-04-20T12:14:11;101363.75;;;18.67;42.47
62976;BME280;49071;0.000;0.000;2023-04-20T12:17:11;101366.72;;;18.81;42.18
62976;BME280;49071;0.000;0.000;2023-04-20T12:20:11;101361.84;;;18.94;41.99
62976;BME280;49071;0.000;0.000;2023-04-20T12:23:11;101355.97;;;19.09;41.84
62976;BME280;49071;0.000;0.000;2023-04-20T12:26:12;101359.19;;;19.16;41.87
62976;BME280;49071;0.000;0.000;2023-04-20T12:29:12;101354.66;;;19.19;41.63
62976;BME280;49071;0.000;0.000;2023-04-20T12:32:12;101344.09;;;19.21;41.79
62976;BME280;49071;0.000;0.000;2023-04-20T12:35:12;101343.16;;;19.22;41.57
62976;BME280;49071;0.000;0.000;2023-04-20T12:38:12;101336.22;;;19.21;41.55
62976;BME280;49071;0.000;0.000;2023-04-20T12:41:13;101326.59;;;19.20;41.83
62976;BME280;49071;0.000;0.000;2023-04-20T12:44:14;101328.47;;;19.16;41.59
62976;BME280;49071;0.000;0.000;2023-04-20T12:47:14;101321.53;;;19.15;41.57
62976;BME280;49071;0.000;0.000;2023-04-20T12:50:14;101319.94;;;19.11;41.53
62976;BME280;49071;0.000;0.000;2023-04-20T12:53:14;101316.47;;;19.10;41.38
62976;BME280;49071;0.000;0.000;2023-04-20T12:56:15;101306.06;;;19.07;41.52
62976;BME280;49071;0.000;0.000;2023-04-20T12:59:15;101304.47;;;19.03;41.63
62976;BME280;49071;0.000;0.000;2023-04-20T13:02:16;101308.09;;;19.01;41.79
62976;BME280;49071;0.000;0.000;2023-04-20T13:05:16;101306.53;;;18.97;41.67
62976;BME280;49071;0.000;0.000;2023-04-20T13:08:16;101297.03;;;18.93;41.99
62976;BME280;49071;0.000;0.000;2023-04-20T13:11:18;101311.94;;;18.92;41.82
62976;BME280;49071;0.000;0.000;2023-04-20T13:14:18;101298.19;;;18.85;42.06
62976;BME280;49071;0.000;0.000;2023-04-20T13:17:19;101309.69;;;18.83;42.03
62976;BME280;49071;0.000;0.000;2023-04-20T13:20:19;101301.06;;;18.79;42.14
62976;BME280;49071;0.000;0.000;2023-04-20T13:23:19;101301.19;;;18.76;42.29
62976;BME280;49071;0.000;0.000;2023-04-20T13:26:19;101303.97;;;18.73;42.08
62976;BME280;49071;0.000;0.000;2023-04-20T13:29:19;101296.16;;;18.70;42.29
62976;BME280;49071;0.000;0.000;2023-04-20T13:32:20;101301.53;;;18.67;42.10
62976;BME280;49071;0.000;0.000;2023-04-20T13:35:20;101303.44;;;18.63;42.17
62976;BME280;49071;0.000;0.000;2023-04-20T13:38:20;101298.31;;;18.60;42.24
62976;BME280;49071;0.000;0.000;2023-04-20T13:41:21;101300.13;;;18.58;42.57
62976;BME280;49071;0.000;0.000;2023-04-20T13:44:22;101299.09;;;18.62;42.48
62976;BME280;49071;0.000;0.000;2023-04-20T13:47:22;101293.66;;;18.67;42.03
62976;BME280;49071;0.000;0.000;2023-04-20T13:50:23;101303.91;;;18.75;42.20
62976;BME280;49071;0.000;0.000;2023-04-20T13:53:23;101302.59;;;18.85;42.24
62976;BME280;49071;0.000;0.000;2023-04-20T13:56:23;101300.38;;;18.96;42.14
62976;BME280;49071;0.000;0.000;2023-04-20T13:59:23;101297.63;;;18.99;41.77
62976;BME280;49071;0.000;0.000;2023-04-20T14:02:24;101299.38;;;19.00;42.02
62976;BME280;49071;0.000;0.000;2023-04-20T14:05:24;101291.47;;;19.00;42.11
62976;BME280;49071;0.000;0.000;2023-04-20T14:08:24;101295.84;;;19.00;41.89
62976;BME280;49071;0.000;0.000;2023-04-20T14:11:25;101289.88;;;18.96;42.05
62976;BME280;49071;0.000;0.000;2023-04-20T14:14:25;101284.69;;;18.95;42.08
62976;BME280;49071;0.000;0.000;2023-04-20T14:17:25;101292.63;;;18.93;42.12
62976;BME280;49071;0.000;0.000;2023-04-20T14:20:26;101278.75;;;18.90;42.28
62976;BME280;49071;0.000;0.000;2023-04-20T14:23:26;101281.38;;;18.90;41.98
62976;BME280;49071;0.000;0.000;2023-04-20T14:26:26;101288.50;;;18.87;42.19
62976;BME280;49071;0.000;0.000;2023-04-20T14:29:26;101292.09;;;18.85;41.85
62976;BME280;49071;0.000;0.000;2023-04-20T14:32:28;101279.06;;;18.82;42.20
62976;BME280;49071;0.000;0.000;2023-04-20T14:35:29;101277.50;;;18.78;42.19
62976;BME280;49071;0.000;0.000;2023-04-20T14:38:30;101280.16;;;18.76;42.20
62976;BME280;49071;0.000;0.000;2023-04-20T14:41:30;101275.91;;;18.74;42.29
62976;BME280;49071;0.000;0.000;2023-04-20T14:44:32;101268.06;;;18.72;42.13
62976;BME280;49071;0.000;0.000;2023-04-20T14:47:32;101276.94;;;18.70;42.42
62976;BME280;49071;0.000;0.000;2023-04-20T14:50:32;101276.16;;;18.66;42.29
62976;BME280;49071;0.000;0.000;2023-04-20T14:53:32;101277.09;;;18.65;42.53
62976;BME280;49071;0.000;0.000;2023-04-20T14:56:32;101275.28;;;18.67;42.28
62976;BME280;49071;0.000;0.000;2023-04-20T14:59:33;101280.38;;;18.72;42.22
62976;BME280;49071;0.000;0.000;2023-04-20T15:02:33;101278.28;;;18.80;42.30
62976;BME280;49071;0.000;0.000;2023-04-20T15:05:33;101276.81;;;18.95;41.98
62976;BME280;49071;0.000;0.000;2023-04-20T15:08:33;101282.41;;;19.07;41.91
62976;BME280;49071;0.000;0.000;2023-04-20T15:11:34;101287.97;;;19.20;41.80
62976;BME280;49071;0.000;0.000;2023-04-20T15:14:34;101278.88;;;19.29;41.92
62976;BME280;49071;0.000;0.000;2023-04-20T15:17:35;101278.66;;;19.33;41.76
62976;BME280;49071;0.000;0.000;2023-04-20T15:20:35;101276.91;;;19.34;41.42
62976;BME280;49071;0.000;0.000;2023-04-20T15:23:35;101272.63;;;19.31;41.64
62976;BME280;49071;0.000;0.000;2023-04-20T15:26:35;101278.88;;;19.29;42.00
62976;BME280;49071;0.000;0.000;2023-04-20T15:29:36;101264.91;;;19.27;41.82
62976;BME280;49071;0.000;0.000;2023-04-20T15:32:36;101266.81;;;19.23;41.88
62976;BME280;49071;0.000;0.000;2023-04-20T15:35:36;101266.94;;;19.20;41.97
62976;BME280;49071;0.000;0.000;2023-04-20T15:38:36;101260.97;;;19.17;42.06
62976;BME280;49071;0.000;0.000;2023-04-20T15:41:36;101262.03;;;19.13;41.96
62976;BME280;49071;0.000;0.000;2023-04-20T15:44:37;101261.28;;;19.09;42.03
62976;BME280;49071;0.000;0.000;2023-04-20T15:47:37;101258.75;;;19.07;41.85
62976;BME280;49071;0.000;0.000;2023-04-20T15:50:37;101261.50;;;19.04;42.34
62976;BME280;49071;0.000;0.000;2023-04-20T15:53:37;101259.00;;;19.01;42.30
62976;BME280;49071;0.000;0.000;2023-04-20T15:56:38;101259.19;;;18.97;42.42
62976;BME280;49071;0.000;0.000;2023-04-20T15:59:38;101253.19;;;18.93;42.40
62976;BME280;49071;0.000;0.000;2023-04-20T16:02:38;101251.69;;;18.87;42.59
62976;BME280;49071;0.000;0.000;2023-04-20T16:05:39;101251.81;;;18.84;42.41
62976;BME280;49071;0.000;0.000;2023-04-20T16:08:40;101251.09;;;18.81;42.49
62976;BME280;49071;0.000;0.000;2023-04-20T16:11:40;101257.41;;;18.77;42.47
62976;BME280;49071;0.000;0.000;2023-04-20T16:14:40;101260.16;;;18.74;42.77
62976;BME280;49071;0.000;0.000;2023-04-20T16:17:41;101257.59;;;18.71;42.46
62976;BME280;49071;0.000;0.000;2023-04-20T16:20:41;101260.41;;;18.66;42.65
62976;BME280;49071;0.000;0.000;2023-04-20T16:23:41;101266.53;;;18.67;42.77
62976;BME280;49071;0.000;0.000;2023-04-20T16:26:41;101265.59;;;18.68;42.39
62976;BME280;49071;0.000;0.000;2023-04-20T16:29:41;101269.81;;;18.73;42.51
62976;BME280;49071;0.000;0.000;2023-04-20T16:32:41;101263.31;;;18.82;42.66
62976;BME280;49071;0.000;0.000;2023-04-20T16:35:42;101262.84;;;18.93;42.43
62976;BME280;49071;0.000;0.000;2023-04-20T16:38:42;101272.88;;;19.05;42.34
62976;BME280;49071;0.000;0.000;2023-04-20T16:41:42;101262.50;;;19.22;42.08
62976;BME280;49071;0.000;0.000;2023-04-20T16:44:42;101263.53;;;19.39;42.11
62976;BME280;49071;0.000;0.000;2023-04-20T16:47:42;101264.00;;;19.48;42.00
62976;BME280;49071;0.000;0.000;2023-04-20T16:50:43;101270.75;;;19.54;42.18
62976;BME280;49071;0.000;0.000;2023-04-20T16:53:43;101270.03;;;19.50;41.99
62976;BME280;49071;0.000;0.000;2023-04-20T16:56:44;101275.25;;;19.52;41.85
62976;BME280;49071;0.000;0.000;2023-04-20T16:59:44;101276.94;;;19.53;41.71
62976;BME280;49071;0.000;0.000;2023-04-20T17:02:44;101271.75;;;19.51;41.95
62976;BME280;49071;0.000;0.000;2023-04-20T17:05:45;101284.06;;;19.51;42.45
62976;BME280;49071;0.000;0.000;2023-04-20T17:08:45;101280.78;;;19.46;42.22
62976;BME280;49071;0.000;0.000;2023-04-20T17:11:46;101284.19;;;19.48;42.28
62976;BME280;49071;0.000;0.000;2023-04-20T17:14:46;101285.09;;;19.47;42.21
62976;BME280;49071;0.000;0.000;2023-04-20T17:17:46;101287.00;;;19.43;42.50
62976;BME280;49071;0.000;0.000;2023-04-20T17:20:46;101288.16;;;19.38;42.70
62976;BME280;49071;0.000;0.000;2023-04-20T17:23:47;101288.31;;;19.33;42.65
62976;BME280;49071;0.000;0.000;2023-04-20T17:26:47;101291.97;;;19.30;42.91
62976;BME280;49071;0.000;0.000;2023-04-20T17:29:47;101294.66;;;19.29;42.70
62976;BME280;49071;0.000;0.000;2023-04-20T17:32:48;101291.28;;;19.25;42.77
62976;BME280;49071;0.000;0.000;2023-04-20T17:35:48;101295.75;;;19.23;42.82
62976;BME280;49071;0.000;0.000;2023-04-20T17:38:48;101293.25;;;19.20;42.96
62976;BME280;49071;0.000;0.000;2023-04-20T17:41:48;101289.88;;;19.17;43.43
62976;BME280;49071;0.000;0.000;2023-04-20T17:44:48;101301.41;;;19.14;43.63
62976;BME280;49071;0.000;0.000;2023-04-20T17:47:48;101291.16;;;19.08;43.60
62976;BME280;49071;0.000;0.000;2023-04-20T17:50:49;101298.22;;;19.06;43.55
62976;BME280;49071;0.000;0.000;2023-04-20T17:53:49;101303.63;;;19.03;43.60
62976;BME280;49071;0.000;0.000;2023-04-20T17:56:50;101299.41;;;18.99;43.75
62976;BME280;49071;0.000;0.000;2023-04-20T17:59:50;101301.25;;;18.97;43.61
62976;BME280;49071;0.000;0.000;2023-04-20T18:02:50;101307.50;;;18.94;43.85
62976;BME280;49071;0.000;0.000;2023-04-20T18:05:50;101304.25;;;18.87;43.87
62976;BME280;49071;0.000;0.000;2023-04-20T18:08:51;101303.44;;;18.85;44.02
62976;BME280;49071;0.000;0.000;2023-04-20T18:11:51;101308.72;;;18.85;43.91
62976;BME280;49071;0.000;0.000;2023-04-20T18:14:52;101314.94;;;18.83;43.94
62976;BME280;49071;0.000;0.000;2023-04-20T18:17:52;101313.34;;;18.79;44.36
62976;BME280;49071;0.000;0.000;2023-04-20T18:20:52;101312.47;;;18.80;44.16
62976;BME280;49071;0.000;0.000;2023-04-20T18:23:52;101315.22;;;18.77;44.46
62976;BME280;49071;0.000;0.000;2023-04-20T18:26:54;101323.09;;;18.77;44.52
62976;BME280;49071;0.000;0.000;2023-04-20T18:29:54;101317.03;;;18.75;44.77
62976;BME280;49071;0.000;0.000;2023-04-20T18:32:58;101321.44;;;18.74;44.60
62976;BME280;49071;0.000;0.000;2023-04-20T18:35:58;101325.88;;;18.72;44.43
62976;BME280;49071;0.000;0.000;2023-04-20T18:38:58;101328.69;;;18.68;44.73
62976;BME280;49071;0.000;0.000;2023-04-20T18:41:59;101332.28;;;18.65;44.67
62976;BME280;49071;0.000;0.000;2023-04-20T18:44:59;101324.50;;;18.62;45.11
62976;BME280;49071;0.000;0.000;2023-04-20T18:48:00;101326.34;;;18.60;44.89
62976;BME280;49071;0.000;0.000;2023-04-20T18:51:00;101336.91;;;18.58;45.13
62976;BME280;49071;0.000;0.000;2023-04-20T18:54:00;101330.88;;;18.56;45.11
62976;BME280;49071;0.000;0.000;2023-04-20T18:57:00;101330.06;;;18.54;44.91
62976;BME280;49071;0.000;0.000;2023-04-20T19:00:02;101328.38;;;18.53;45.10
62976;BME280;49071;0.000;0.000;2023-04-20T19:03:06;101338.06;;;18.51;45.06
62976;BME280;49071;0.000;0.000;2023-04-20T19:06:06;101331.16;;;18.49;45.46
62976;BME280;49071;0.000;0.000;2023-04-20T19:09:06;101332.00;;;18.49;45.55
62976;BME280;49071;0.000;0.000;2023-04-20T19:12:07;101338.06;;;18.51;45.60
62976;BME280;49071;0.000;0.000;2023-04-20T19:15:07;101341.72;;;18.47;45.43
62976;BME280;49071;0.000;0.000;2023-04-20T19:18:07;101337.22;;;18.51;45.87
62976;BME280;49071;0.000;0.000;2023-04-20T19:21:08;101337.31;;;18.48;45.65
62976;BME280;49071;0.000;0.000;2023-04-20T19:24:09;101338.38;;;18.44;45.77
62976;BME280;49071;0.000;0.000;2023-04-20T19:27:09;101344.41;;;18.46;45.88
62976;BME280;49071;0.000;0.000;2023-04-20T19:30:09;101342.59;;;18.48;45.88
62976;BME280;49071;0.000;0.000;2023-04-20T19:33:10;101346.13;;;18.47;46.41
62976;BME280;49071;0.000;0.000;2023-04-20T19:36:10;101346.03;;;18.50;46.16
62976;BME280;49071;0.000;0.000;2023-04-20T19:39:10;101345.94;;;18.51;46.41
62976;BME280;49071;0.000;0.000;2023-04-20T19:42:10;101349.53;;;18.49;46.57
62976;BME280;49071;0.000;0.000;2023-04-20T19:45:11;101341.63;;;18.50;46.55
62976;BME280;49071;0.000;0.000;2023-04-20T19:48:11;101353.91;;;18.50;46.53
62976;BME280;49071;0.000;0.000;2023-04-20T19:51:11;101348.75;;;18.47;46.17
